createdAt,value
2023-04-23T00:01:19.208Z,2.03
2023-04-23T00:03:48.609Z,1.70
2023-04-23T00:06:17.685Z,1.70
2023-04-23T00:08:44.982Z,1.77
2023-04-23T00:11:12.289Z,2.08
2023-04-23T00:13:39.692Z,1.60
2023-04-23T00:16:07.305Z,2.30
2023-04-23T00:18:34.675Z,1.90
2023-04-23T00:21:01.950Z,1.92
2023-04-23T00:23:29.219Z,1.88
2023-04-23T00:25:56.678Z,1.65
2023-04-23T00:28:23.975Z,1.75
2023-04-23T00:30:51.149Z,1.73
2023-04-23T00:33:18.393Z,1.67
2023-04-23T00:35:45.693Z,1.92
2023-04-23T00:38:12.555Z,1.75
2023-04-23T00:40:39.672Z,1.58
2023-04-23T00:43:07.407Z,1.70
2023-04-23T00:45:34.692Z,1.55
2023-04-23T00:48:03.057Z,2.00
2023-04-23T00:50:31.465Z,1.63
2023-04-23T00:52:59.062Z,1.58
2023-04-23T00:55:26.404Z,1.85
2023-04-23T00:57:54.321Z,2.03
2023-04-23T01:00:21.717Z,1.98
2023-04-23T01:02:50.615Z,1.70
2023-04-23T01:05:18.231Z,1.90
2023-04-23T01:07:46.747Z,1.80
2023-04-23T01:10:14.061Z,1.70
2023-04-23T01:12:42.413Z,1.88
2023-04-23T01:15:10.087Z,2.13
2023-04-23T01:17:37.233Z,1.80
2023-04-23T01:20:06.566Z,2.05
2023-04-23T01:22:36.715Z,2.15
2023-04-23T01:25:04.771Z,1.98
2023-04-23T01:27:33.261Z,2.08
2023-04-23T01:30:03.749Z,1.75
2023-04-23T01:32:31.640Z,1.88
2023-04-23T01:34:58.990Z,1.60
2023-04-23T01:37:27.721Z,2.05
2023-04-23T01:39:54.715Z,2.00
2023-04-23T01:42:23.371Z,1.85
2023-04-23T01:44:52.300Z,2.05
2023-04-23T01:47:21.200Z,2.30
2023-04-23T01:49:48.664Z,2.08
2023-04-23T01:52:15.968Z,1.77
2023-04-23T01:54:43.021Z,2.15
2023-04-23T01:57:10.869Z,1.85
2023-04-23T01:59:38.769Z,1.80
2023-04-23T02:02:05.743Z,2.10
2023-04-23T02:04:33.690Z,1.83
2023-04-23T02:07:01.338Z,1.65
2023-04-23T02:09:28.244Z,1.85
2023-04-23T02:11:57.728Z,1.92
2023-04-23T02:14:25.030Z,1.48
2023-04-23T02:16:52.730Z,2.13
2023-04-23T02:19:19.560Z,1.60
2023-04-23T02:21:46.757Z,1.70
2023-04-23T02:24:13.576Z,1.73
2023-04-23T02:26:40.360Z,1.35
2023-04-23T02:29:07.610Z,1.88
2023-04-23T02:31:35.063Z,1.38
2023-04-23T02:34:02.481Z,1.60
2023-04-23T02:36:32.394Z,1.80
2023-04-23T02:39:00.385Z,1.90
2023-04-23T02:41:27.741Z,1.98
2023-04-23T02:43:54.539Z,1.95
2023-04-23T02:46:22.375Z,1.90
2023-04-23T02:48:49.285Z,1.75
2023-04-23T02:51:17.354Z,2.03
2023-04-23T02:53:44.583Z,1.90
2023-04-23T02:56:11.417Z,2.33
2023-04-23T02:58:38.680Z,1.77
2023-04-23T03:01:06.101Z,1.75
2023-04-23T03:03:34.038Z,1.80
2023-04-23T03:06:03.487Z,1.70
2023-04-23T03:08:30.489Z,2.15
2023-04-23T03:10:57.307Z,1.83
2023-04-23T03:13:25.065Z,2.22
2023-04-23T03:15:52.836Z,1.60
2023-04-23T03:18:20.381Z,1.85
2023-04-23T03:20:50.897Z,1.73
2023-04-23T03:23:18.324Z,1.88
2023-04-23T03:25:47.374Z,2.00
2023-04-23T03:28:14.745Z,1.73
2023-04-23T03:30:41.857Z,2.00
2023-04-23T03:33:09.481Z,1.80
2023-04-23T03:35:36.811Z,2.10
2023-04-23T03:38:07.651Z,2.00
2023-04-23T03:40:36.494Z,2.00
2023-04-23T03:43:05.726Z,1.80
2023-04-23T03:46:05.803Z,2.28
2023-04-23T03:48:37.251Z,1.88
2023-04-23T03:51:08.901Z,2.30
2023-04-23T03:53:48.559Z,2.03
2023-04-23T03:56:41.657Z,2.10
2023-04-23T03:59:16.403Z,1.90
2023-04-23T04:01:45.241Z,1.95
2023-04-23T04:04:12.307Z,1.88
2023-04-23T04:06:39.708Z,2.08
2023-04-23T04:09:08.316Z,2.42
2023-04-23T04:11:35.895Z,2.35
2023-04-23T04:14:03.273Z,2.47
2023-04-23T04:16:30.229Z,2.33
2023-04-23T04:18:57.087Z,2.05
2023-04-23T04:21:24.354Z,1.95
2023-04-23T04:23:51.898Z,2.00
2023-04-23T04:26:19.129Z,2.22
2023-04-23T04:28:46.432Z,2.00
2023-04-23T04:31:15.944Z,2.17
2023-04-23T04:33:43.398Z,1.75
2023-04-23T04:36:10.215Z,1.80
2023-04-23T04:38:38.017Z,2.45
2023-04-23T04:41:05.456Z,2.10
2023-04-23T04:43:32.899Z,1.70
2023-04-23T04:46:00.320Z,1.80
2023-04-23T04:48:27.579Z,1.73
2023-04-23T04:50:54.901Z,1.70
2023-04-23T04:53:22.118Z,1.70
2023-04-23T04:55:49.409Z,2.17
2023-04-23T04:58:16.986Z,1.92
2023-04-23T05:00:44.502Z,2.20
2023-04-23T05:03:14.115Z,2.28
2023-04-23T05:05:41.769Z,1.90
2023-04-23T05:08:09.403Z,2.00
2023-04-23T05:10:36.706Z,2.13
2023-04-23T05:13:04.095Z,1.80
2023-04-23T05:15:31.389Z,2.05
2023-04-23T05:17:58.644Z,2.45
2023-04-23T05:20:25.520Z,2.20
2023-04-23T05:22:52.735Z,1.52
2023-04-23T05:25:20.006Z,1.58
2023-04-23T05:27:47.297Z,2.08
2023-04-23T05:30:14.675Z,1.80
2023-04-23T05:32:41.965Z,1.90
2023-04-23T05:35:09.391Z,2.05
2023-04-23T05:37:36.645Z,2.10
2023-04-23T05:40:06.549Z,2.00
2023-04-23T05:42:37.408Z,2.47
2023-04-23T05:45:06.690Z,2.33
2023-04-23T05:47:35.846Z,1.75
2023-04-23T05:50:03.241Z,2.30
2023-04-23T05:52:33.424Z,2.00
2023-04-23T05:55:00.838Z,2.35
2023-04-23T05:57:28.092Z,2.05
2023-04-23T05:59:55.342Z,2.20
2023-04-23T06:02:24.675Z,1.88
2023-04-23T06:04:52.795Z,1.85
2023-04-23T06:07:20.737Z,2.15
2023-04-23T06:09:48.032Z,1.77
2023-04-23T06:12:14.830Z,2.00
2023-04-23T06:14:42.463Z,1.55
2023-04-23T06:17:09.516Z,1.63
2023-04-23T06:19:36.954Z,1.50
2023-04-23T06:22:04.191Z,1.80
2023-04-23T06:24:31.472Z,1.65
2023-04-23T06:26:58.973Z,1.50
2023-04-23T06:29:27.947Z,1.60
2023-04-23T06:32:05.060Z,1.48
2023-04-23T06:34:32.659Z,1.75
2023-04-23T06:36:59.877Z,1.35
2023-04-23T06:39:26.790Z,1.33
2023-04-23T06:41:54.013Z,1.45
2023-04-23T06:44:41.660Z,1.77
2023-04-23T06:47:09.087Z,1.60
2023-04-23T06:49:36.353Z,1.38
2023-04-23T06:52:03.591Z,1.20
2023-04-23T06:54:30.838Z,1.60
2023-04-23T06:56:58.114Z,1.48
2023-04-23T06:59:25.074Z,1.50
2023-04-23T07:01:55.242Z,1.60
2023-04-23T07:04:22.190Z,1.67
2023-04-23T07:06:49.536Z,2.08
2023-04-23T07:09:16.915Z,1.40
2023-04-23T07:11:44.185Z,1.67
2023-04-23T07:14:11.152Z,1.88
2023-04-23T07:16:38.476Z,1.80
2023-04-23T07:19:05.652Z,1.98
2023-04-23T07:21:33.037Z,2.15
2023-04-23T07:24:00.806Z,1.58
2023-04-23T07:26:28.298Z,1.73
2023-04-23T07:28:55.157Z,1.65
2023-04-23T07:31:23.876Z,1.83
2023-04-23T07:33:51.320Z,1.80
2023-04-23T07:36:18.518Z,2.40
2023-04-23T07:38:45.800Z,1.92
2023-04-23T07:41:13.181Z,1.83
2023-04-23T07:43:41.042Z,1.50
2023-04-23T07:46:08.652Z,2.00
2023-04-23T07:48:35.990Z,1.77
2023-04-23T07:51:03.296Z,2.08
2023-04-23T07:53:30.943Z,2.60
2023-04-23T07:55:58.402Z,1.70
2023-04-23T07:58:25.954Z,2.20
2023-04-23T08:00:52.897Z,1.92
2023-04-23T08:03:20.508Z,1.92
2023-04-23T08:05:47.827Z,2.10
2023-04-23T08:08:15.167Z,1.98
2023-04-23T08:10:42.522Z,2.13
2023-04-23T08:13:09.945Z,1.98
2023-04-23T08:15:36.989Z,1.90
2023-04-23T08:18:04.628Z,2.10
2023-04-23T08:20:32.457Z,1.95
2023-04-23T08:22:59.773Z,2.10
2023-04-23T08:25:27.102Z,2.17
2023-04-23T08:27:54.370Z,2.08
2023-04-23T08:30:21.665Z,2.55
2023-04-23T08:32:55.614Z,2.13
2023-04-23T08:35:23.603Z,1.90
2023-04-23T08:37:50.858Z,1.60
2023-04-23T08:40:18.223Z,1.98
2023-04-23T08:42:45.452Z,1.63
2023-04-23T08:45:13.734Z,1.90
2023-04-23T08:47:44.428Z,1.63
2023-04-23T08:50:17.866Z,1.58
2023-04-23T08:52:50.830Z,2.08
2023-04-23T08:55:18.918Z,1.70
2023-04-23T08:57:46.877Z,1.83
2023-04-23T09:00:17.231Z,1.85
2023-04-23T09:02:46.067Z,2.10
2023-04-23T09:05:13.964Z,1.70
2023-04-23T09:07:41.836Z,1.85
2023-04-23T09:10:11.385Z,1.80
2023-04-23T09:12:41.045Z,2.00
2023-04-23T09:15:12.770Z,2.25
2023-04-23T09:17:44.253Z,2.00
2023-04-23T09:20:12.677Z,1.75
2023-04-23T09:22:52.523Z,1.75
2023-04-23T09:25:21.101Z,2.00
2023-04-23T09:27:50.745Z,1.63
2023-04-23T09:30:18.391Z,1.60
2023-04-23T09:32:46.660Z,1.83
2023-04-23T09:35:16.434Z,1.48
2023-04-23T09:37:48.468Z,1.58
2023-04-23T09:40:17.793Z,1.48
2023-04-23T09:42:50.007Z,1.30
2023-04-23T09:45:17.332Z,1.48
2023-04-23T09:47:56.885Z,1.40
2023-04-23T09:50:38.374Z,1.80
2023-04-23T09:53:07.076Z,1.52
2023-04-23T09:55:40.779Z,1.40
2023-04-23T09:58:16.670Z,1.65
2023-04-23T10:00:43.632Z,1.30
2023-04-23T10:03:12.164Z,1.55
2023-04-23T10:08:13.380Z,1.40
2023-04-23T10:10:56.790Z,1.13
2023-04-23T10:13:28.030Z,1.00
2023-04-23T10:15:59.089Z,1.15
2023-04-23T10:18:33.535Z,1.20
2023-04-23T10:21:02.690Z,1.08
2023-04-23T10:23:30.953Z,1.10
2023-04-23T10:26:01.455Z,1.33
2023-04-23T10:28:32.067Z,1.40
2023-04-23T10:31:00.714Z,1.20
2023-04-23T10:33:31.885Z,1.17
2023-04-23T10:36:02.973Z,1.30
2023-04-23T10:38:30.524Z,1.30
2023-04-23T10:41:01.386Z,0.98
2023-04-23T10:43:28.239Z,1.05
2023-04-23T10:45:55.300Z,1.30
2023-04-23T10:48:22.114Z,1.40
2023-04-23T10:51:09.485Z,1.17
2023-04-23T10:53:45.912Z,0.90
2023-04-23T10:56:12.790Z,1.00
2023-04-23T10:58:50.534Z,1.33
2023-04-23T11:01:18.658Z,1.10
2023-04-23T11:03:45.949Z,1.20
2023-04-23T11:06:17.335Z,1.15
2023-04-23T11:08:54.465Z,1.30
2023-04-23T11:11:39.956Z,1.17
2023-04-23T11:14:16.162Z,1.05
2023-04-23T11:16:43.326Z,1.10
2023-04-23T11:19:13.034Z,1.05
2023-04-23T11:22:00.075Z,0.85
2023-04-23T11:24:32.625Z,0.98
2023-04-23T11:27:00.374Z,1.00
2023-04-23T11:29:28.462Z,1.30
2023-04-23T11:34:26.268Z,1.00
2023-04-23T11:36:57.223Z,0.73
2023-04-23T11:39:24.737Z,1.35
2023-04-23T11:41:52.837Z,1.00
2023-04-23T11:44:21.425Z,1.13
2023-04-23T11:46:49.875Z,0.77
2023-04-23T11:49:21.933Z,0.95
2023-04-23T11:51:48.763Z,1.20
2023-04-23T11:54:16.338Z,1.00
2023-04-23T11:56:43.668Z,0.88
2023-04-23T11:59:10.575Z,1.05
2023-04-23T12:01:44.396Z,0.68
2023-04-23T12:04:15.550Z,0.65
2023-04-23T12:06:44.872Z,0.70
2023-04-23T12:09:13.263Z,0.88
2023-04-23T12:11:44.136Z,0.85
2023-04-23T12:14:12.901Z,0.77
2023-04-23T12:16:45.677Z,0.90
2023-04-23T12:19:22.019Z,0.88
2023-04-23T12:21:49.851Z,0.70
2023-04-23T12:24:17.221Z,0.60
2023-04-23T12:26:44.521Z,0.68
2023-04-23T12:29:13.679Z,0.73
2023-04-23T12:31:43.007Z,0.60
2023-04-23T12:34:10.932Z,0.70
2023-04-23T12:36:40.880Z,0.43
2023-04-23T12:39:19.735Z,0.60
2023-04-23T12:41:46.646Z,0.70
2023-04-23T12:44:13.729Z,0.55
2023-04-23T12:46:40.774Z,0.45
2023-04-23T12:49:07.678Z,0.70
2023-04-23T12:51:34.610Z,0.70
2023-04-23T12:54:01.517Z,0.68
2023-04-23T12:56:28.636Z,0.43
2023-04-23T12:58:55.546Z,0.77
2023-04-23T13:01:22.388Z,0.70
2023-04-23T13:03:49.374Z,0.68
2023-04-23T13:06:16.430Z,0.57
2023-04-23T13:08:43.444Z,0.60
2023-04-23T13:11:11.284Z,0.50
2023-04-23T13:13:38.140Z,0.50
2023-04-23T13:16:05.160Z,0.40
2023-04-23T13:18:32.056Z,0.47
2023-04-23T13:20:58.864Z,0.40
2023-04-23T13:23:26.524Z,0.50
2023-04-23T13:25:53.462Z,0.60
2023-04-23T13:28:20.804Z,0.65
2023-04-23T13:30:47.615Z,0.57
2023-04-23T13:33:14.875Z,0.45
2023-04-23T13:35:41.834Z,0.60
2023-04-23T13:38:08.661Z,0.60
2023-04-23T13:40:36.234Z,0.70
2023-04-23T13:43:03.079Z,0.50
2023-04-23T13:45:29.963Z,0.60
2023-04-23T13:47:56.871Z,0.40
2023-04-23T13:50:24.004Z,0.55
2023-04-23T13:52:50.930Z,0.60
2023-04-23T13:55:17.831Z,0.57
2023-04-23T13:57:44.752Z,0.50
2023-04-23T14:00:12.879Z,0.50
2023-04-23T14:02:40.027Z,0.65
2023-04-23T14:05:08.905Z,0.38
2023-04-23T14:07:36.584Z,0.55
2023-04-23T14:10:03.982Z,0.47
2023-04-23T14:12:30.809Z,0.50
2023-04-23T14:14:57.689Z,0.50
2023-04-23T14:17:24.845Z,0.40
2023-04-23T14:19:51.665Z,0.30
2023-04-23T14:22:18.464Z,0.50
2023-04-23T14:24:49.650Z,0.50
2023-04-23T14:27:16.714Z,0.30
2023-04-23T14:29:52.909Z,0.28
2023-04-23T14:32:20.286Z,0.50
2023-04-23T14:34:47.763Z,0.47
2023-04-23T14:37:17.541Z,0.38
2023-04-23T14:39:47.817Z,0.38
2023-04-23T14:42:15.535Z,0.30
2023-04-23T14:44:42.907Z,0.50
2023-04-23T14:47:12.175Z,0.40
2023-04-23T14:49:42.253Z,0.30
2023-04-23T14:52:09.913Z,0.25
2023-04-23T14:54:37.450Z,0.30
2023-04-23T14:57:05.389Z,0.32
2023-04-23T14:59:32.369Z,0.55
2023-04-23T15:02:00.826Z,0.50
2023-04-23T15:04:27.883Z,0.75
2023-04-23T15:06:54.756Z,1.10
2023-04-23T15:09:21.613Z,0.80
2023-04-23T15:11:48.936Z,0.60
2023-04-23T15:14:33.413Z,0.50
2023-04-23T15:17:01.125Z,0.50
2023-04-23T15:19:31.263Z,0.30
2023-04-23T15:21:59.048Z,0.35
2023-04-23T15:24:26.017Z,0.65
2023-04-23T15:26:54.598Z,0.45
2023-04-23T15:29:21.408Z,0.40
2023-04-23T15:31:48.259Z,0.40
2023-04-23T15:34:15.170Z,0.50
2023-04-23T15:36:42.052Z,0.45
2023-04-23T15:39:09.303Z,0.40
2023-04-23T15:41:39.591Z,0.40
2023-04-23T15:44:12.360Z,0.40
2023-04-23T15:46:39.646Z,0.52
2023-04-23T15:49:06.573Z,0.35
2023-04-23T15:51:33.545Z,0.38
2023-04-23T15:54:02.185Z,0.60
2023-04-23T15:56:29.264Z,0.60
2023-04-23T15:58:56.048Z,0.60
2023-04-23T16:01:24.779Z,0.40
2023-04-23T16:04:08.659Z,0.57
2023-04-23T16:06:37.584Z,0.40
2023-04-23T16:09:08.015Z,0.52
2023-04-23T16:11:38.611Z,0.60
2023-04-23T16:14:06.356Z,0.60
2023-04-23T16:16:33.616Z,0.50
2023-04-23T16:19:01.938Z,0.68
2023-04-23T16:21:28.879Z,0.60
2023-04-23T16:23:55.834Z,0.70
2023-04-23T16:26:22.746Z,1.02
2023-04-23T16:28:52.406Z,0.60
2023-04-23T16:31:32.687Z,0.70
2023-04-23T16:34:00.124Z,1.10
2023-04-23T16:36:27.101Z,0.75
2023-04-23T16:38:54.443Z,0.77
2023-04-23T16:41:22.077Z,0.60
2023-04-23T16:43:49.345Z,0.70
2023-04-23T16:46:16.737Z,0.80
2023-04-23T16:48:45.147Z,0.93
2023-04-23T16:51:12.822Z,1.00
2023-04-23T16:53:40.324Z,0.70
2023-04-23T16:56:07.297Z,0.80
2023-04-23T16:58:36.094Z,0.52
2023-04-23T17:01:03.957Z,0.75
2023-04-23T17:03:31.154Z,0.60
2023-04-23T17:06:28.519Z,0.75
2023-04-23T17:09:00.081Z,0.77
2023-04-23T17:11:28.343Z,0.63
2023-04-23T17:13:56.259Z,0.70
2023-04-23T17:16:26.619Z,0.85
2023-04-23T17:18:54.620Z,0.98
2023-04-23T17:21:21.659Z,0.73
2023-04-23T17:23:48.580Z,0.77
2023-04-23T17:26:15.906Z,0.90
2023-04-23T17:28:43.404Z,0.63
2023-04-23T17:31:11.321Z,0.68
2023-04-23T17:33:38.786Z,0.60
2023-04-23T17:36:05.836Z,0.77
2023-04-23T17:38:33.985Z,0.50
2023-04-23T17:41:01.332Z,0.68
2023-04-23T17:43:28.683Z,0.70
2023-04-23T17:45:56.042Z,0.50
2023-04-23T17:48:23.535Z,0.77
2023-04-23T17:50:50.855Z,0.47
2023-04-23T17:53:18.280Z,0.73
2023-04-23T17:55:45.755Z,0.63
2023-04-23T17:58:12.991Z,0.70
2023-04-23T18:00:44.388Z,0.60
2023-04-23T18:03:16.572Z,0.73
2023-04-23T18:05:43.949Z,0.80
2023-04-23T18:08:10.732Z,0.88
2023-04-23T18:10:38.080Z,1.00
2023-04-23T18:13:09.059Z,0.82
2023-04-23T18:15:36.054Z,0.90
2023-04-23T18:18:03.356Z,0.75
2023-04-23T18:20:33.114Z,0.80
2023-04-23T18:23:00.908Z,0.80
2023-04-23T18:25:28.381Z,0.60
2023-04-23T18:27:56.128Z,0.77
2023-04-23T18:30:25.426Z,0.50
2023-04-23T18:33:19.365Z,0.55
2023-04-23T18:35:49.710Z,0.70
2023-04-23T18:38:43.514Z,0.60
2023-04-23T18:41:10.763Z,0.70
2023-04-23T18:43:38.258Z,0.77
2023-04-23T18:46:06.052Z,0.80
2023-04-23T18:48:35.944Z,0.95
2023-04-23T18:51:15.000Z,0.88
2023-04-23T18:53:42.270Z,0.60
2023-04-23T18:56:09.606Z,0.60
2023-04-23T18:58:36.926Z,0.80
2023-04-23T19:01:04.252Z,0.60
2023-04-23T19:03:31.785Z,0.60
2023-04-23T19:05:59.278Z,0.65
2023-04-23T19:08:28.948Z,0.70
2023-04-23T19:10:56.572Z,0.57
2023-04-23T19:13:23.875Z,0.77
2023-04-23T19:15:51.052Z,0.57
2023-04-23T19:18:19.890Z,0.70
2023-04-23T19:20:47.534Z,0.68
2023-04-23T19:23:14.955Z,0.80
2023-04-23T19:25:42.279Z,1.02
2023-04-23T19:28:09.985Z,0.77
2023-04-23T19:30:37.987Z,0.85
2023-04-23T19:33:05.644Z,0.70
2023-04-23T19:35:33.194Z,0.80
2023-04-23T19:38:00.713Z,0.90
2023-04-23T19:40:28.160Z,0.90
2023-04-23T19:42:55.789Z,0.63
2023-04-23T19:45:23.197Z,0.55
2023-04-23T19:47:50.951Z,0.60
2023-04-23T19:50:19.762Z,1.00
2023-04-23T19:52:47.097Z,0.88
2023-04-23T19:55:14.635Z,0.70
2023-04-23T19:57:42.015Z,1.00
2023-04-23T20:00:13.872Z,0.90
2023-04-23T20:02:41.499Z,1.00
2023-04-23T20:05:10.590Z,0.68
2023-04-23T20:07:38.736Z,0.95
2023-04-23T20:10:06.415Z,0.52
2023-04-23T20:12:34.001Z,0.90
2023-04-23T20:15:01.359Z,0.88
2023-04-23T20:17:30.063Z,0.80
2023-04-23T20:20:01.672Z,0.90
2023-04-23T20:22:29.689Z,0.80
2023-04-23T20:24:57.528Z,0.80
2023-04-23T20:27:24.870Z,0.93
2023-04-23T20:29:52.496Z,1.10
2023-04-23T20:32:19.611Z,0.90
2023-04-23T20:34:46.922Z,1.13
2023-04-23T20:37:14.159Z,0.95
2023-04-23T20:39:41.907Z,0.90
2023-04-23T20:42:08.996Z,1.27
2023-04-23T20:44:36.311Z,1.00
2023-04-23T20:47:08.387Z,0.93
2023-04-23T20:49:35.796Z,0.98
2023-04-23T20:52:03.251Z,1.42
2023-04-23T20:54:30.864Z,1.00
2023-04-23T20:56:58.666Z,0.98
2023-04-23T20:59:25.660Z,0.90
2023-04-23T21:01:53.030Z,1.58
2023-04-23T21:04:20.658Z,0.80
2023-04-23T21:06:48.152Z,0.75
2023-04-23T21:09:15.057Z,1.10
2023-04-23T21:11:42.350Z,1.10
2023-04-23T21:14:09.599Z,1.10
2023-04-23T21:16:37.181Z,0.93
2023-04-23T21:19:04.734Z,0.98
2023-04-23T21:21:32.598Z,1.33
2023-04-23T21:24:00.953Z,1.10
2023-04-23T21:26:30.235Z,1.08
2023-04-23T21:28:57.106Z,0.85
2023-04-23T21:31:47.901Z,1.20
2023-04-23T21:34:15.721Z,1.00
2023-04-23T21:36:44.984Z,1.00
2023-04-23T21:39:13.342Z,0.93
2023-04-23T21:41:40.728Z,1.00
2023-04-23T21:44:08.533Z,1.00
2023-04-23T21:46:35.421Z,0.95
2023-04-23T21:49:02.725Z,1.00
2023-04-23T21:51:30.164Z,0.70
2023-04-23T21:53:57.265Z,0.73
2023-04-23T21:56:24.663Z,0.88
2023-04-23T21:58:51.890Z,0.75
2023-04-23T22:01:18.923Z,0.88
2023-04-23T22:03:46.709Z,0.90
2023-04-23T22:06:15.676Z,0.60
2023-04-23T22:08:44.732Z,0.85
2023-04-23T22:11:12.146Z,0.77
2023-04-23T22:13:39.385Z,0.70
2023-04-23T22:16:16.430Z,0.60
2023-04-23T22:18:52.342Z,0.70
2023-04-23T22:21:19.574Z,0.73
2023-04-23T22:23:47.118Z,0.98
2023-04-23T22:26:14.410Z,0.80
2023-04-23T22:28:43.245Z,0.60
2023-04-23T22:31:10.623Z,0.60
2023-04-23T22:33:37.897Z,0.80
2023-04-23T22:36:05.471Z,0.70
2023-04-23T22:38:32.879Z,0.70
2023-04-23T22:41:00.337Z,0.82
2023-04-23T22:43:27.550Z,0.95
2023-04-23T22:45:54.995Z,1.00
2023-04-23T22:48:22.085Z,0.63
2023-04-23T22:50:51.085Z,0.80
2023-04-23T22:53:19.419Z,0.82
2023-04-23T22:55:46.774Z,0.77
2023-04-23T22:58:13.621Z,0.80
2023-04-23T23:00:40.869Z,0.80
2023-04-23T23:03:08.461Z,0.73
2023-04-23T23:05:35.785Z,0.68
2023-04-23T23:08:03.435Z,1.00
2023-04-23T23:10:30.765Z,0.80
2023-04-23T23:12:58.048Z,0.80
2023-04-23T23:15:25.266Z,0.88
2023-04-23T23:17:53.923Z,0.80
2023-04-23T23:20:20.860Z,1.10
2023-04-23T23:22:48.143Z,0.70
2023-04-23T23:25:16.157Z,0.77
2023-04-23T23:27:43.058Z,1.15
2023-04-23T23:30:10.623Z,0.90
2023-04-23T23:32:38.021Z,0.90
2023-04-23T23:35:06.464Z,0.82
2023-04-23T23:37:33.718Z,0.90
2023-04-23T23:40:01.021Z,0.90
2023-04-23T23:42:27.902Z,1.13
2023-04-23T23:44:55.169Z,0.90
2023-04-23T23:47:22.500Z,0.85
2023-04-23T23:49:49.931Z,0.90
2023-04-23T23:52:17.252Z,0.98
2023-04-23T23:54:44.088Z,0.82
2023-04-23T23:57:11.317Z,0.80
2023-04-23T23:59:38.595Z,0.77
